Time;durP1;ratioP1;P1;durP2;ratioP2;P2;SDS_P1;SDS_P2;PMS_P1;PMS_P2;Temp;Humidity;BMP_temperature;BMP_pressure;BME280_temperature;BME280_humidity;BME280_pressure;Samples;Min_cycle;Max_cycle;Signal;HPM_P1;HPM_P2
2024/03/21 00:00:43;;;;;;;;;;;;;;;19.66;44.11;101343.38;2048619;28;6032;-68
2024/03/21 00:01:44;;;;;;;;;;;;;;;19.67;44.13;101344.88;2049486;28;2490;-69
2024/03/21 00:02:46;;;;;;;;;;;;;;;19.67;43.95;101339.13;2042703;28;2190;-68
2024/03/21 00:03:47;;;;;;;;;;;;;;;19.66;44.07;101337.63;2050460;28;2169;-68
2024/03/21 00:04:47;;;;;;;;;;;;;;;19.66;44.07;101339.75;2054140;28;2027;-69
2024/03/21 00:05:48;;;;;;;;;;;;;;;19.66;44.00;101336.91;2045838;28;2197;-69
2024/03/21 00:06:48;;;;;;;;;;;;;;;19.65;44.09;101330.41;2054257;28;2031;-68
2024/03/21 00:07:49;;;;;;;;;;;;;;;19.65;44.00;101336.16;2053512;28;1704;-70
2024/03/21 00:08:49;;;;;;;;;;;;;;;19.65;44.03;101327.53;2045925;28;2178;-68
2024/03/21 00:09:50;;;;;;;;;;;;;;;19.66;43.98;101336.91;2045570;28;2364;-68
2024/03/21 00:10:50;;;;;;;;;;;;;;;19.66;44.08;101331.16;2043595;28;2269;-67
2024/03/21 00:11:50;;;;;;;;;;;;;;;19.66;44.17;101329.00;2051751;28;2157;-68
2024/03/21 00:12:51;;;;;;;;;;;;;;;19.65;44.16;101330.41;2052260;28;2133;-68
2024/03/21 00:13:51;;;;;;;;;;;;;;;19.66;44.08;101331.88;2061210;28;2202;-68
2024/03/21 00:14:52;;;;;;;;;;;;;;;19.65;44.07;101330.41;2055303;28;2461;-67
2024/03/21 00:15:52;;;;;;;;;;;;;;;19.66;44.01;101331.16;2055285;28;2012;-68
2024/03/21 00:16:52;;;;;;;;;;;;;;;19.66;44.15;101328.28;2046939;29;1677;-68
2024/03/21 00:17:53;;;;;;;;;;;;;;;19.66;44.08;101334.75;2053817;28;1643;-68
2024/03/21 00:18:53;;;;;;;;;;;;;;;19.65;44.07;101327.53;2056281;28;1723;-66
2024/03/21 00:19:54;;;;;;;;;;;;;;;19.66;44.18;101325.41;2044064;28;2233;-69
2024/03/21 00:20:54;;;;;;;;;;;;;;;19.66;44.11;101325.41;2052127;28;2121;-68
2024/03/21 00:21:55;;;;;;;;;;;;;;;19.65;44.10;101330.41;2051998;28;2117;-68
2024/03/21 00:22:55;;;;;;;;;;;;;;;19.65;44.10;101318.91;2044034;28;2142;-68
2024/03/21 00:23:56;;;;;;;;;;;;;;;19.66;44.12;101325.41;2044421;28;2425;-68
2024/03/21 00:24:56;;;;;;;;;;;;;;;19.65;44.13;101321.78;2043207;28;2155;-68
2024/03/21 00:26:00;;;;;;;;;;;;;;;19.65;44.11;101323.91;2043809;28;2197;-68
2024/03/21 00:27:01;;;;;;;;;;;;;;;19.64;44.15;101323.16;2053036;28;2127;-68
2024/03/21 00:28:01;;;;;;;;;;;;;;;19.66;44.03;101325.41;2057530;28;2518;-68
2024/03/21 00:29:04;;;;;;;;;;;;;;;19.65;44.12;101321.03;2045974;28;2144;-68
2024/03/21 00:30:05;;;;;;;;;;;;;;;19.64;44.08;101328.91;2043946;28;7795;-68
2024/03/21 00:31:05;;;;;;;;;;;;;;;19.64;44.04;101326.03;2051908;28;2153;-68
2024/03/21 00:32:06;;;;;;;;;;;;;;;19.64;44.04;101323.16;2051213;28;2185;-68
2024/03/21 00:33:06;;;;;;;;;;;;;;;19.64;44.13;101322.41;2052628;28;2168;-68
2024/03/21 00:34:08;;;;;;;;;;;;;;;19.64;44.24;101323.16;2052252;28;2263;-69
2024/03/21 00:35:09;;;;;;;;;;;;;;;19.65;44.11;101329.63;2052875;28;2243;-68
2024/03/21 00:36:09;;;;;;;;;;;;;;;19.64;44.00;101328.91;2057091;28;2159;-68
2024/03/21 00:37:09;;;;;;;;;;;;;;;19.64;44.08;101326.03;2058485;28;2143;-68
2024/03/21 00:38:10;;;;;;;;;;;;;;;19.64;44.04;101322.41;2053981;28;2124;-68
2024/03/21 00:39:14;;;;;;;;;;;;;;;19.64;44.19;101328.91;2060447;28;2148;-68
2024/03/21 00:40:14;;;;;;;;;;;;;;;19.64;44.10;101323.16;2058281;28;2531;-68
2024/03/21 00:41:15;;;;;;;;;;;;;;;19.64;44.03;101328.91;2051566;28;2202;-68
2024/03/21 00:42:15;;;;;;;;;;;;;;;19.64;44.12;101326.03;2049541;28;2148;-67
2024/03/21 00:43:16;;;;;;;;;;;;;;;19.64;44.10;101328.91;2052682;28;2404;-69
2024/03/21 00:44:16;;;;;;;;;;;;;;;19.64;44.09;101328.91;2051010;28;2165;-68
2024/03/21 00:45:17;;;;;;;;;;;;;;;19.64;44.08;101326.03;2058711;28;2224;-68
2024/03/21 00:46:17;;;;;;;;;;;;;;;19.64;44.11;101314.53;2059749;28;2123;-68
2024/03/21 00:47:18;;;;;;;;;;;;;;;19.64;44.08;101326.03;2050343;28;2131;-68
2024/03/21 00:48:18;;;;;;;;;;;;;;;19.64;44.08;101322.41;2052984;28;2049;-68
2024/03/21 00:49:19;;;;;;;;;;;;;;;19.64;44.09;101317.41;2052964;28;2156;-67
2024/03/21 00:50:20;;;;;;;;;;;;;;;19.64;44.00;101323.16;2059149;28;2299;-68
2024/03/21 00:51:20;;;;;;;;;;;;;;;19.64;44.09;101323.16;2051834;28;2147;-68
2024/03/21 00:52:20;;;;;;;;;;;;;;;19.64;44.09;101317.41;2051554;28;2108;-68
2024/03/21 00:53:21;;;;;;;;;;;;;;;19.64;44.18;101328.91;2052858;28;2234;-67
2024/03/21 00:54:22;;;;;;;;;;;;;;;19.63;44.05;101324.53;2053660;28;2215;-68
2024/03/21 00:55:22;;;;;;;;;;;;;;;19.64;44.12;101323.16;2050070;28;2164;-68
2024/03/21 00:56:22;;;;;;;;;;;;;;;19.64;44.12;101322.41;2060373;28;2221;-68
2024/03/21 00:57:23;;;;;;;;;;;;;;;19.63;44.17;101327.41;2061509;28;2084;-68
2024/03/21 00:58:27;;;;;;;;;;;;;;;19.64;44.12;101319.53;2052258;28;1659;-68
2024/03/21 00:59:27;;;;;;;;;;;;;;;19.63;44.11;101320.91;2052307;28;2054;-68
2024/03/21 01:00:27;;;;;;;;;;;;;;;19.63;44.13;101327.41;2057951;28;6585;-69
2024/03/21 01:01:28;;;;;;;;;;;;;;;19.63;44.17;101315.94;2052705;28;2631;-68
2024/03/21 01:02:28;;;;;;;;;;;;;;;19.63;44.09;101318.78;2054169;28;2109;-68
2024/03/21 01:03:29;;;;;;;;;;;;;;;19.63;44.17;101321.66;2053929;28;1695;-68
2024/03/21 01:04:29;;;;;;;;;;;;;;;19.62;44.14;101325.91;2053699;28;1633;-68
2024/03/21 01:05:29;;;;;;;;;;;;;;;19.63;44.10;101321.66;2061884;28;1747;-68
2024/03/21 01:06:30;;;;;;;;;;;;;;;19.63;44.14;101323.78;2060873;28;2273;-68
2024/03/21 01:07:31;;;;;;;;;;;;;;;19.63;44.14;101315.94;2053301;28;1677;-68
2024/03/21 01:08:31;;;;;;;;;;;;;;;19.63;44.12;101315.94;2053559;28;1672;-68
2024/03/21 01:09:32;;;;;;;;;;;;;;;19.62;44.18;101317.28;2050150;28;2117;-68
2024/03/21 01:10:32;;;;;;;;;;;;;;;19.62;44.13;101317.28;2059559;28;2123;-68
2024/03/21 01:11:32;;;;;;;;;;;;;;;19.62;44.09;101311.53;2060485;28;2131;-68
2024/03/21 01:12:33;;;;;;;;;;;;;;;19.62;44.00;101308.66;2054109;28;2144;-68
2024/03/21 01:13:33;;;;;;;;;;;;;;;19.62;44.14;101314.41;2053916;28;1691;-68
2024/03/21 01:14:33;;;;;;;;;;;;;;;19.63;44.21;101312.28;2051636;28;2082;-68
2024/03/21 01:15:34;;;;;;;;;;;;;;;19.62;44.15;101308.66;2051602;28;2236;-67
2024/03/21 01:16:34;;;;;;;;;;;;;;;19.63;44.18;101309.41;2055775;28;1625;-69
2024/03/21 01:17:36;;;;;;;;;;;;;;;19.63;44.21;101309.41;2063060;28;2251;-69
2024/03/21 01:18:36;;;;;;;;;;;;;;;19.63;44.17;101306.53;2061537;28;1599;-68
2024/03/21 01:19:39;;;;;;;;;;;;;;;19.63;44.14;101304.44;2050055;28;2085;-68
2024/03/21 01:20:40;;;;;;;;;;;;;;;19.62;44.15;101302.91;2059313;28;2127;-68
2024/03/21 01:21:40;;;;;;;;;;;;;;;19.62;44.11;101297.19;2058805;28;2425;-68
2024/03/21 01:22:41;;;;;;;;;;;;;;;19.62;44.15;101308.66;2052434;28;2697;-68
2024/03/21 01:23:41;;;;;;;;;;;;;;;19.62;44.14;101308.66;2052197;28;2359;-69
2024/03/21 01:24:48;;;;;;;;;;;;;;;19.63;44.12;101309.41;2059059;28;2119;-68
2024/03/21 01:25:49;;;;;;;;;;;;;;;19.62;44.09;101308.66;2058266;28;2203;-68
2024/03/21 01:26:50;;;;;;;;;;;;;;;19.62;44.11;101302.91;2058232;28;2185;-68
2024/03/21 01:27:50;;;;;;;;;;;;;;;19.62;44.24;101302.19;2058971;28;2174;-68
2024/03/21 01:28:51;;;;;;;;;;;;;;;19.62;44.13;101297.19;2058926;28;2154;-68
2024/03/21 01:29:51;;;;;;;;;;;;;;;19.62;44.13;101285.69;2057833;28;2150;-68
2024/03/21 01:30:52;;;;;;;;;;;;;;;19.63;44.19;101298.69;2043300;28;6347;-68
2024/03/21 01:31:52;;;;;;;;;;;;;;;19.62;44.00;101308.66;2043663;28;2119;-68
2024/03/21 01:32:53;;;;;;;;;;;;;;;19.63;44.05;101292.16;2043813;28;2151;-68
2024/03/21 01:33:54;;;;;;;;;;;;;;;19.62;44.25;101297.19;2051034;28;2211;-69
2024/03/21 01:34:54;;;;;;;;;;;;;;;19.62;44.05;101300.03;2059083;28;2112;-68
2024/03/21 01:35:55;;;;;;;;;;;;;;;19.62;44.05;101297.19;2048929;28;2275;-68
2024/03/21 01:36:57;;;;;;;;;;;;;;;19.62;44.11;101296.44;2044030;28;2231;-68
2024/03/21 01:37:58;;;;;;;;;;;;;;;19.61;44.14;101295.69;2051998;28;2566;-67
2024/03/21 01:38:58;;;;;;;;;;;;;;;19.60;44.08;101294.19;2052005;28;2079;-68
2024/03/21 01:40:06;;;;;;;;;;;;;;;19.62;44.13;101297.19;2051169;28;2145;-67
2024/03/21 01:41:06;;;;;;;;;;;;;;;19.62;44.08;101300.03;2054744;28;2470;-69
2024/03/21 01:42:07;;;;;;;;;;;;;;;19.61;44.15;101295.69;2047735;28;2127;-68
2024/03/21 01:43:21;;;;;;;;;;;;;;;19.62;44.04;101297.19;2044629;28;3075;-68
2024/03/21 01:44:21;;;;;;;;;;;;;;;19.62;44.15;101305.06;2047882;28;1856;-68
2024/03/21 01:45:22;;;;;;;;;;;;;;;19.62;44.12;101296.44;2045245;28;2158;-68
2024/03/21 01:46:22;;;;;;;;;;;;;;;19.62;44.11;101294.31;2045939;28;1924;-68
2024/03/21 01:47:23;;;;;;;;;;;;;;;19.63;44.12;101292.16;2046136;28;1593;-68
2024/03/21 01:48:23;;;;;;;;;;;;;;;19.62;44.07;101290.69;2045644;28;2056;-68
2024/03/21 01:49:24;;;;;;;;;;;;;;;19.61;44.16;101295.69;2049601;28;2181;-68
2024/03/21 01:50:25;;;;;;;;;;;;;;;19.61;44.13;101292.81;2049920;28;2210;-70
2024/03/21 01:51:26;;;;;;;;;;;;;;;19.60;44.06;101291.31;2041406;28;2224;-64
2024/03/21 01:52:27;;;;;;;;;;;;;;;19.60;44.13;101285.56;2043950;28;2209;-63
2024/03/21 01:53:28;;;;;;;;;;;;;;;19.61;44.19;101289.94;2043270;28;2135;-63
2024/03/21 01:54:32;;;;;;;;;;;;;;;19.60;44.12;101288.44;2044177;28;2202;-65
2024/03/21 01:55:32;;;;;;;;;;;;;;;19.61;44.10;101289.22;2043046;28;2158;-65
2024/03/21 01:56:33;;;;;;;;;;;;;;;19.60;44.14;101276.94;2052360;28;2192;-65
2024/03/21 01:57:35;;;;;;;;;;;;;;;19.60;44.12;101285.56;2053739;28;1651;-64
2024/03/21 01:58:35;;;;;;;;;;;;;;;19.60;44.15;101276.94;2052122;28;2145;-64
2024/03/21 01:59:36;;;;;;;;;;;;;;;19.60;44.16;101276.94;2043748;28;2600;-64
2024/03/21 02:00:36;;;;;;;;;;;;;;;19.60;44.08;101268.34;2041860;28;6281;-66
2024/03/21 02:01:37;;;;;;;;;;;;;;;19.60;44.13;101274.06;2042370;28;2157;-64
2024/03/21 02:02:37;;;;;;;;;;;;;;;19.60;44.22;101270.47;2050944;28;2148;-65
2024/03/21 02:03:38;;;;;;;;;;;;;;;19.60;44.22;101271.19;2044815;28;2143;-65
2024/03/21 02:04:38;;;;;;;;;;;;;;;19.59;44.14;101278.34;2043927;28;2149;-64
2024/03/21 02:05:39;;;;;;;;;;;;;;;19.60;44.09;101271.19;2050926;28;2113;-65
2024/03/21 02:06:39;;;;;;;;;;;;;;;19.60;44.04;101271.19;2044461;28;2223;-64
2024/03/21 02:07:40;;;;;;;;;;;;;;;19.60;44.16;101270.47;2045751;28;2046;-65
2024/03/21 02:08:40;;;;;;;;;;;;;;;19.60;44.16;101264.72;2045313;28;2293;-65
2024/03/21 02:09:40;;;;;;;;;;;;;;;19.60;44.19;101264.72;2042700;28;2289;-65
2024/03/21 02:10:41;;;;;;;;;;;;;;;19.60;44.18;101262.59;2042928;28;2134;-64
2024/03/21 02:11:42;;;;;;;;;;;;;;;19.60;44.04;101258.97;2044609;28;2127;-65
2024/03/21 02:12:43;;;;;;;;;;;;;;;19.59;44.10;101255.34;2043160;28;2444;-64
2024/03/21 02:13:44;;;;;;;;;;;;;;;19.59;44.11;101261.09;2043049;28;2190;-65
2024/03/21 02:14:45;;;;;;;;;;;;;;;19.59;44.14;101263.97;2044310;28;2217;-65
2024/03/21 02:15:47;;;;;;;;;;;;;;;19.59;44.19;101261.09;2050124;28;2142;-65
2024/03/21 02:16:47;;;;;;;;;;;;;;;19.59;44.22;101258.22;2043817;28;2145;-65
2024/03/21 02:17:48;;;;;;;;;;;;;;;19.59;44.20;101251.75;2042880;28;2454;-65
2024/03/21 02:18:48;;;;;;;;;;;;;;;19.59;44.09;101252.47;2041297;28;2208;-65
2024/03/21 02:19:49;;;;;;;;;;;;;;;19.59;44.17;101251.75;2048853;28;2328;-65
2024/03/21 02:20:49;;;;;;;;;;;;;;;19.58;44.20;101253.84;2049508;28;2089;-65
2024/03/21 02:23:13;;;;;;;;;;;;;;;19.59;44.02;101251.75;2035320;29;2183;-64
2024/03/21 02:24:13;;;;;;;;;;;;;;;19.59;44.13;101251.75;2042052;28;2240;-65
2024/03/21 02:25:14;;;;;;;;;;;;;;;19.58;44.09;101250.97;2042182;28;2524;-64
2024/03/21 02:26:14;;;;;;;;;;;;;;;19.58;44.08;101250.97;2043498;28;2182;-65
2024/03/21 02:27:15;;;;;;;;;;;;;;;19.58;44.20;101253.84;2040695;28;2129;-64
2024/03/21 02:28:15;;;;;;;;;;;;;;;19.58;44.15;101247.38;2039149;28;2260;-64
2024/03/21 02:29:16;;;;;;;;;;;;;;;19.58;44.24;101253.09;2047866;28;2129;-64
2024/03/21 02:30:16;;;;;;;;;;;;;;;19.58;44.22;101245.22;2042998;28;6172;-65
2024/03/21 02:31:19;;;;;;;;;;;;;;;19.58;44.13;101247.38;2048431;28;2155;-65
2024/03/21 02:32:20;;;;;;;;;;;;;;;19.58;44.13;101239.50;2057493;28;2165;-64
2024/03/21 02:33:20;;;;;;;;;;;;;;;19.57;44.19;101243.75;2059685;28;2233;-66
2024/03/21 02:34:21;;;;;;;;;;;;;;;19.58;44.13;101244.50;2058141;28;2179;-64
2024/03/21 02:35:21;;;;;;;;;;;;;;;19.58;44.21;101241.63;2058346;28;2104;-64
2024/03/21 02:36:21;;;;;;;;;;;;;;;19.58;44.22;101245.22;2050985;28;2128;-65
2024/03/21 02:37:22;;;;;;;;;;;;;;;19.57;44.21;101245.88;2058419;28;2279;-65
2024/03/21 02:38:22;;;;;;;;;;;;;;;19.57;44.17;101240.88;2057931;28;2146;-65
2024/03/21 02:39:23;;;;;;;;;;;;;;;19.57;44.32;101249.50;2049814;28;2213;-64
2024/03/21 02:40:23;;;;;;;;;;;;;;;19.57;44.25;101243.00;2049041;28;2171;-65
2024/03/21 02:41:24;;;;;;;;;;;;;;;19.57;44.22;101240.13;2050691;28;2490;-64
2024/03/21 02:42:24;;;;;;;;;;;;;;;19.57;44.27;101240.88;2050671;28;2145;-65
2024/03/21 02:43:24;;;;;;;;;;;;;;;19.57;44.18;101240.88;2054255;28;2241;-64
2024/03/21 02:44:25;;;;;;;;;;;;;;;19.56;44.27;101239.41;2052274;28;2127;-64
2024/03/21 02:45:25;;;;;;;;;;;;;;;19.57;44.24;101243.75;2056919;28;2111;-64
2024/03/21 02:46:25;;;;;;;;;;;;;;;19.55;44.22;101235.03;2052101;28;2153;-64
2024/03/21 02:47:26;;;;;;;;;;;;;;;19.56;44.35;101230.78;2050935;28;2212;-65
2024/03/21 02:48:27;;;;;;;;;;;;;;;19.55;44.27;101240.75;2050956;28;2144;-65
2024/03/21 02:49:27;;;;;;;;;;;;;;;19.56;44.29;101241.50;2050364;28;2096;-65
2024/03/21 02:50:28;;;;;;;;;;;;;;;19.56;44.31;101245.16;2050335;28;2455;-65
2024/03/21 02:51:28;;;;;;;;;;;;;;;19.56;44.31;101253.00;2050965;28;2159;-64
2024/03/21 02:52:29;;;;;;;;;;;;;;;19.56;44.34;101241.50;2058878;28;2111;-65
2024/03/21 02:53:29;;;;;;;;;;;;;;;19.56;44.47;101247.25;2059100;28;2123;-64
2024/03/21 02:54:31;;;;;;;;;;;;;;;19.55;44.28;101243.63;2049865;28;2215;-65
2024/03/21 02:55:31;;;;;;;;;;;;;;;19.55;44.35;101252.25;2057242;28;2118;-64
2024/03/21 02:56:32;;;;;;;;;;;;;;;19.56;44.32;101245.16;2059186;28;2215;-64
2024/03/21 02:57:33;;;;;;;;;;;;;;;19.55;44.39;101249.38;2050778;28;2420;-64
2024/03/21 02:58:33;;;;;;;;;;;;;;;19.55;44.27;101254.38;2050215;28;2401;-64
2024/03/21 02:59:34;;;;;;;;;;;;;;;19.54;44.43;101250.78;2050551;28;2182;-64
2024/03/21 03:00:34;;;;;;;;;;;;;;;19.55;44.29;101254.38;2056013;28;6115;-65
2024/03/21 03:01:34;;;;;;;;;;;;;;;19.54;44.31;101256.53;2057312;28;2219;-64
2024/03/21 03:02:36;;;;;;;;;;;;;;;19.55;44.35;101263.00;2058883;28;2104;-65
2024/03/21 03:03:36;;;;;;;;;;;;;;;19.53;44.35;101252.13;2050787;28;2196;-64
2024/03/21 03:04:37;;;;;;;;;;;;;;;19.56;44.35;101259.50;2050169;28;2204;-64
2024/03/21 03:05:41;;;;;;;;;;;;;;;19.55;44.41;101258.00;2058083;28;2203;-65
2024/03/21 03:06:41;;;;;;;;;;;;;;;19.55;44.37;101252.25;2050865;28;2183;-65
2024/03/21 03:07:41;;;;;;;;;;;;;;;19.54;44.38;101247.91;2050936;28;2259;-64
2024/03/21 03:08:42;;;;;;;;;;;;;;;19.52;44.39;101253.53;2049480;28;2074;-64
2024/03/21 03:09:42;;;;;;;;;;;;;;;19.54;44.44;101250.78;2051176;28;2173;-65
2024/03/21 03:10:43;;;;;;;;;;;;;;;19.53;44.38;101255.00;2050840;28;2507;-65
2024/03/21 03:11:43;;;;;;;;;;;;;;;19.53;44.40;101257.88;2058796;28;2266;-65
2024/03/21 03:12:44;;;;;;;;;;;;;;;19.54;44.29;101252.88;2057801;28;2287;-64
2024/03/21 03:13:44;;;;;;;;;;;;;;;19.54;44.46;101255.75;2050578;28;2164;-65
2024/03/21 03:14:44;;;;;;;;;;;;;;;19.53;44.43;101255.00;2050231;28;2404;-64
2024/03/21 03:15:45;;;;;;;;;;;;;;;19.54;44.45;101250.00;2049341;28;2132;-64
2024/03/21 03:16:45;;;;;;;;;;;;;;;19.53;44.44;101242.78;2050262;28;2139;-65
2024/03/21 03:17:46;;;;;;;;;;;;;;;19.52;44.41;101247.78;2050105;28;2264;-64
2024/03/21 03:18:46;;;;;;;;;;;;;;;19.53;44.48;101243.53;2057963;28;2209;-65
2024/03/21 03:19:46;;;;;;;;;;;;;;;19.53;44.44;101255.00;2055603;28;2631;-64
2024/03/21 03:20:47;;;;;;;;;;;;;;;19.52;44.49;101250.66;2051202;28;2133;-65
2024/03/21 03:21:48;;;;;;;;;;;;;;;19.52;44.43;101242.03;2051525;28;2175;-64
2024/03/21 03:22:48;;;;;;;;;;;;;;;19.53;44.40;101248.53;2059974;28;2184;-65
2024/03/21 03:23:49;;;;;;;;;;;;;;;19.52;44.39;101244.91;2057621;28;2114;-65
2024/03/21 03:24:49;;;;;;;;;;;;;;;19.52;44.42;101244.91;2050043;28;2179;-64
2024/03/21 03:25:49;;;;;;;;;;;;;;;19.53;44.41;101243.53;2058084;28;2275;-64
2024/03/21 03:26:50;;;;;;;;;;;;;;;19.52;44.36;101244.91;2060824;28;1631;-64
2024/03/21 03:27:50;;;;;;;;;;;;;;;19.52;44.47;101247.78;2052693;28;2377;-64
2024/03/21 03:28:51;;;;;;;;;;;;;;;19.52;44.57;101244.91;2051502;28;1624;-65
2024/03/21 03:29:51;;;;;;;;;;;;;;;19.51;44.44;101246.28;2051998;28;1652;-64
2024/03/21 03:30:51;;;;;;;;;;;;;;;19.51;44.47;101246.28;2050511;28;6128;-64
2024/03/21 03:32:00;;;;;;;;;;;;;;;19.51;44.44;101240.53;2058473;28;2599;-66
2024/03/21 03:35:33;;;;;;;;;;;;;;;19.51;44.45;101249.16;2058607;28;2131;-65
2024/03/21 03:35:44;;;;;;;;;;;;;;;19.51;44.36;101240.53;2050498;28;2269;-65
2024/03/21 03:36:45;;;;;;;;;;;;;;;19.51;44.49;101248.41;2049596;28;2153;-65
2024/03/21 03:37:45;;;;;;;;;;;;;;;19.51;44.48;101234.03;2050958;28;2191;-65
2024/03/21 03:38:46;;;;;;;;;;;;;;;19.50;44.50;101250.53;2048581;28;2603;-65
2024/03/21 03:39:46;;;;;;;;;;;;;;;19.51;44.56;101245.53;2057940;28;2144;-65
2024/03/21 03:40:47;;;;;;;;;;;;;;;19.50;44.55;101239.06;2057546;28;2220;-64
2024/03/21 03:41:47;;;;;;;;;;;;;;;19.51;44.54;101245.53;2057675;28;2151;-64
2024/03/21 03:42:48;;;;;;;;;;;;;;;19.50;44.63;101244.78;2049371;28;2116;-64
2024/03/21 03:43:48;;;;;;;;;;;;;;;19.50;44.42;101241.94;2056457;28;2377;-65
2024/03/21 03:44:48;;;;;;;;;;;;;;;19.49;44.56;101249.03;2049436;28;2142;-64
2024/03/21 03:45:49;;;;;;;;;;;;;;;19.49;44.57;101246.16;2050273;28;2246;-64
2024/03/21 03:46:49;;;;;;;;;;;;;;;19.49;44.57;101237.53;2052047;28;2129;-65
2024/03/21 03:47:50;;;;;;;;;;;;;;;19.50;44.58;101244.78;2052018;28;2113;-65
2024/03/21 03:48:50;;;;;;;;;;;;;;;19.50;44.55;101238.31;2052291;28;1797;-65
2024/03/21 03:49:50;;;;;;;;;;;;;;;19.49;44.48;101231.81;2053435;28;1664;-65
2024/03/21 03:50:51;;;;;;;;;;;;;;;19.50;44.55;101241.19;2051037;28;2224;-64
2024/03/21 03:51:51;;;;;;;;;;;;;;;19.49;44.52;101243.28;2058113;28;2231;-64
2024/03/21 03:52:52;;;;;;;;;;;;;;;19.48;44.57;101227.44;2057818;28;2230;-65
2024/03/21 03:53:52;;;;;;;;;;;;;;;19.49;44.54;101236.81;2048637;28;2245;-65
2024/03/21 03:54:52;;;;;;;;;;;;;;;19.49;44.58;101231.81;2050722;28;2170;-64
2024/03/21 03:55:53;;;;;;;;;;;;;;;19.49;44.54;101226.06;2050105;28;2290;-65
2024/03/21 03:56:53;;;;;;;;;;;;;;;19.49;44.56;101231.06;2051453;28;2167;-65
2024/03/21 03:57:54;;;;;;;;;;;;;;;19.49;44.63;101231.06;2048419;28;2124;-64
2024/03/21 03:58:54;;;;;;;;;;;;;;;19.49;44.48;101240.41;2048677;28;2214;-64
2024/03/21 03:59:55;;;;;;;;;;;;;;;19.50;44.45;101241.19;2058298;28;2230;-64
2024/03/21 04:00:56;;;;;;;;;;;;;;;19.50;44.47;101238.31;2053161;28;6245;-64
2024/03/21 04:01:57;;;;;;;;;;;;;;;19.50;44.48;101244.78;2058665;28;2138;-64
2024/03/21 04:02:57;;;;;;;;;;;;;;;19.51;44.39;101239.78;2058991;28;2126;-64
2024/03/21 04:03:58;;;;;;;;;;;;;;;19.50;44.53;101233.31;2048321;28;2232;-64
2024/03/21 04:04:58;;;;;;;;;;;;;;;19.51;44.44;101231.91;2049578;28;2462;-65
2024/03/21 04:06:03;;;;;;;;;;;;;;;19.52;44.49;101238.44;2050963;28;2266;-64
2024/03/21 04:07:03;;;;;;;;;;;;;;;19.52;44.49;101233.44;2053224;28;2255;-64
2024/03/21 04:08:04;;;;;;;;;;;;;;;19.52;44.45;101236.28;2050452;28;2141;-65
2024/03/21 04:09:04;;;;;;;;;;;;;;;19.52;44.40;101236.28;2048912;28;2153;-64
2024/03/21 04:10:08;;;;;;;;;;;;;;;19.53;44.34;101231.28;2048833;28;2315;-65
2024/03/21 04:11:12;;;;;;;;;;;;;;;19.53;44.29;101237.78;2050185;28;2118;-65
2024/03/21 04:12:13;;;;;;;;;;;;;;;19.55;44.28;101229.28;2049856;28;2146;-64
2024/03/21 04:13:13;;;;;;;;;;;;;;;19.54;44.18;101227.78;2048533;28;2142;-65
2024/03/21 04:14:13;;;;;;;;;;;;;;;19.54;44.20;101233.53;2051692;28;2183;-64
2024/03/21 04:15:14;;;;;;;;;;;;;;;19.54;44.16;101224.91;2049980;28;2076;-65
2024/03/21 04:16:15;;;;;;;;;;;;;;;19.55;44.22;101232.16;2050894;28;2202;-65
2024/03/21 04:17:16;;;;;;;;;;;;;;;19.55;44.20;101235.03;2052880;28;2161;-64
2024/03/21 04:18:17;;;;;;;;;;;;;;;19.56;44.10;101236.53;2051056;28;2238;-65
2024/03/21 04:19:17;;;;;;;;;;;;;;;19.57;44.13;101234.41;2055304;28;2194;-64
2024/03/21 04:20:18;;;;;;;;;;;;;;;19.56;44.05;101230.78;2055670;28;2239;-65
2024/03/21 04:21:18;;;;;;;;;;;;;;;19.56;43.93;101230.78;2050688;28;2490;-65
2024/03/21 04:22:19;;;;;;;;;;;;;;;19.57;44.13;101240.13;2048887;28;2085;-64
2024/03/21 04:23:19;;;;;;;;;;;;;;;19.56;44.15;101230.78;2057961;28;2166;-64
2024/03/21 04:24:20;;;;;;;;;;;;;;;19.56;44.13;101233.66;2057360;28;2238;-64
2024/03/21 04:25:20;;;;;;;;;;;;;;;19.57;44.23;101238.00;2049972;28;2196;-65
2024/03/21 04:26:20;;;;;;;;;;;;;;;19.56;43.98;101242.28;2049850;28;2137;-64
2024/03/21 04:27:21;;;;;;;;;;;;;;;19.56;44.14;101242.28;2058424;28;2191;-65
2024/03/21 04:28:21;;;;;;;;;;;;;;;19.56;44.12;101236.53;2060193;28;2261;-64
2024/03/21 04:29:22;;;;;;;;;;;;;;;19.56;44.13;101230.00;2052481;28;1631;-64
2024/03/21 04:30:22;;;;;;;;;;;;;;;19.57;44.21;101231.53;2049634;28;6218;-65
2024/03/21 04:31:23;;;;;;;;;;;;;;;19.56;44.27;101233.66;2059617;28;1581;-64
2024/03/21 04:32:25;;;;;;;;;;;;;;;19.57;44.23;101232.25;2059523;28;2139;-65
2024/03/21 04:33:25;;;;;;;;;;;;;;;19.57;44.27;101225.78;2053028;28;1563;-64
2024/03/21 04:34:26;;;;;;;;;;;;;;;19.57;44.25;101225.78;2049065;28;2258;-65
2024/03/21 04:35:26;;;;;;;;;;;;;;;19.58;44.28;101225.13;2051017;28;2007;-65
2024/03/21 04:36:26;;;;;;;;;;;;;;;19.57;44.37;101231.53;2040546;28;2483;-64
2024/03/21 04:37:29;;;;;;;;;;;;;;;19.56;44.29;101230.78;2050324;28;2157;-64
2024/03/21 04:38:29;;;;;;;;;;;;;;;19.56;44.41;101225.03;2059957;28;2061;-64
2024/03/21 04:39:29;;;;;;;;;;;;;;;19.57;44.39;101225.78;2053059;28;1699;-65
2024/03/21 04:40:30;;;;;;;;;;;;;;;19.55;44.47;101217.78;2050930;28;2058;-65
2024/03/21 04:41:30;;;;;;;;;;;;;;;19.57;44.47;101223.66;2053217;28;1707;-64
2024/03/21 04:42:31;;;;;;;;;;;;;;;19.56;44.68;101227.13;2057984;28;2140;-64
2024/03/21 04:43:31;;;;;;;;;;;;;;;19.55;44.59;101226.41;2050265;28;2224;-64
2024/03/21 04:44:31;;;;;;;;;;;;;;;19.55;44.75;101226.41;2054790;28;2545;-65
2024/03/21 04:45:32;;;;;;;;;;;;;;;19.55;44.71;101223.53;2058315;28;2517;-64
2024/03/21 04:46:32;;;;;;;;;;;;;;;19.55;44.68;101228.53;2057085;28;2600;-64
2024/03/21 04:47:33;;;;;;;;;;;;;;;19.55;44.79;101222.78;2059297;28;2453;-65
2024/03/21 04:48:34;;;;;;;;;;;;;;;19.55;44.90;101228.53;2050386;28;2162;-65
2024/03/21 04:49:35;;;;;;;;;;;;;;;19.55;44.87;101229.28;2049966;28;2240;-64
2024/03/21 04:50:35;;;;;;;;;;;;;;;19.55;44.87;101226.41;2049261;28;2112;-64
2024/03/21 04:51:35;;;;;;;;;;;;;;;19.55;44.91;101226.41;2051033;28;2505;-65
2024/03/21 04:52:36;;;;;;;;;;;;;;;19.55;44.91;101219.91;2051265;28;2152;-65
2024/03/21 04:53:36;;;;;;;;;;;;;;;19.54;44.98;101230.66;2059725;28;2159;-65
2024/03/21 04:54:36;;;;;;;;;;;;;;;19.55;44.90;101219.91;2060365;28;2127;-65
2024/03/21 04:55:37;;;;;;;;;;;;;;;19.54;44.97;101216.31;2051284;28;2176;-65
2024/03/21 04:56:37;;;;;;;;;;;;;;;19.55;44.98;101211.31;2060210;28;2099;-65
2024/03/21 04:57:38;;;;;;;;;;;;;;;19.54;44.98;101212.66;2058727;28;2129;-65
2024/03/21 04:58:39;;;;;;;;;;;;;;;19.54;44.86;101210.56;2052002;28;2144;-65
2024/03/21 04:59:39;;;;;;;;;;;;;;;19.54;44.88;101204.03;2057933;28;2591;-65
2024/03/21 05:00:40;;;;;;;;;;;;;;;19.54;44.98;101212.66;2059217;28;6190;-65
2024/03/21 05:01:40;;;;;;;;;;;;;;;19.54;44.97;101209.78;2050978;28;2249;-64
2024/03/21 05:02:40;;;;;;;;;;;;;;;19.54;44.93;101204.03;2050938;28;2206;-65
2024/03/21 05:03:41;;;;;;;;;;;;;;;19.53;44.86;101209.06;2051590;28;2264;-65
2024/03/21 05:04:41;;;;;;;;;;;;;;;19.54;44.78;101204.81;2052539;28;2164;-64
2024/03/21 05:05:42;;;;;;;;;;;;;;;19.55;44.80;101205.56;2052324;28;2358;-64
2024/03/21 05:06:43;;;;;;;;;;;;;;;19.55;44.77;101199.81;2061129;28;1692;-64
2024/03/21 05:07:43;;;;;;;;;;;;;;;19.55;44.66;101199.81;2059858;28;1977;-65
2024/03/21 05:08:44;;;;;;;;;;;;;;;19.55;44.57;101200.56;2060458;28;2143;-64
2024/03/21 05:09:44;;;;;;;;;;;;;;;19.56;44.59;101207.81;2059427;28;2428;-64
2024/03/21 05:10:45;;;;;;;;;;;;;;;19.57;44.47;101202.78;2057268;28;2229;-65
2024/03/21 05:11:45;;;;;;;;;;;;;;;19.56;44.47;101196.31;2061944;28;2128;-64
2024/03/21 05:12:45;;;;;;;;;;;;;;;19.56;44.49;101207.81;2053933;28;2100;-65
2024/03/21 05:13:49;;;;;;;;;;;;;;;19.57;44.67;101203.53;2052371;28;2493;-65
2024/03/21 05:14:50;;;;;;;;;;;;;;;19.57;44.58;101197.78;2054627;28;2177;-64
2024/03/21 05:15:50;;;;;;;;;;;;;;;19.58;44.55;101199.28;2051462;28;2161;-64
2024/03/21 05:16:51;;;;;;;;;;;;;;;19.58;44.65;101202.13;2053815;28;2145;-65
2024/03/21 05:17:51;;;;;;;;;;;;;;;19.58;44.44;101196.41;2052194;28;2351;-63
2024/03/21 05:18:52;;;;;;;;;;;;;;;19.60;44.61;101195.78;2048796;28;2240;-64
2024/03/21 05:19:52;;;;;;;;;;;;;;;19.60;44.64;101192.91;2049770;28;2225;-65